sensor_id;sensor_type;location;lat;lon;timestamp;pressure;altitude;pressure_sealevel;temperature;humidity
64095;BME280;50353;51.420;5.682;2023-05-02T00:01:05;101684.06;;;14.65;73.26
64095;BME280;50353;51.420;5.682;2023-05-02T00:03:31;101683.66;;;13.70;79.08
64095;BME280;50353;51.420;5.682;2023-05-02T00:05:58;101689.47;;;13.46;80.35
64095;BME280;50353;51.420;5.682;2023-05-02T00:08:23;101690.69;;;13.71;79.33
64095;BME280;50353;51.420;5.682;2023-05-02T00:10:49;101691.28;;;13.30;81.58
64095;BME280;50353;51.420;5.682;2023-05-02T00:13:14;101697.91;;;13.69;80.47
64095;BME280;50353;51.420;5.682;2023-05-02T00:15:39;101692.34;;;13.58;80.11
64095;BME280;50353;51.420;5.682;2023-05-02T00:18:05;101696.13;;;13.53;81.03
64095;BME280;50353;51.420;5.682;2023-05-02T00:20:30;101692.97;;;13.77;80.44
64095;BME280;50353;51.420;5.682;2023-05-02T00:22:55;101705.25;;;14.09;78.34
64095;BME280;50353;51.420;5.682;2023-05-02T00:25:23;101706.91;;;13.66;80.35
64095;BME280;50353;51.420;5.682;2023-05-02T00:27:49;101707.13;;;13.78;79.74
64095;BME280;50353;51.420;5.682;2023-05-02T00:30:15;101714.16;;;13.32;81.78
64095;BME280;50353;51.420;5.682;2023-05-02T00:32:41;101719.06;;;13.71;80.40
64095;BME280;50353;51.420;5.682;2023-05-02T00:35:07;101701.69;;;13.79;79.84
64095;BME280;50353;51.420;5.682;2023-05-02T00:37:32;101712.06;;;13.53;81.40
64095;BME280;50353;51.420;5.682;2023-05-02T00:39:58;101715.69;;;13.52;81.05
64095;BME280;50353;51.420;5.682;2023-05-02T00:42:23;101712.94;;;13.54;81.53
64095;BME280;50353;51.420;5.682;2023-05-02T00:44:48;101721.72;;;13.71;81.31
64095;BME280;50353;51.420;5.682;2023-05-02T00:47:14;101707.03;;;13.79;80.18
64095;BME280;50353;51.420;5.682;2023-05-02T00:49:40;101726.66;;;13.46;81.22
64095;BME280;50353;51.420;5.682;2023-05-02T00:52:05;101728.56;;;13.12;83.37
64095;BME280;50353;51.420;5.682;2023-05-02T00:54:32;101722.59;;;12.93;83.14
64095;BME280;50353;51.420;5.682;2023-05-02T00:56:57;101720.09;;;13.38;80.44
64095;BME280;50353;51.420;5.682;2023-05-02T00:59:24;101722.41;;;12.96;82.98
64095;BME280;50353;51.420;5.682;2023-05-02T01:02:24;101726.31;;;13.52;80.11
64095;BME280;50353;51.420;5.682;2023-05-02T01:05:01;101726.84;;;13.43;80.69
64095;BME280;50353;51.420;5.682;2023-05-02T01:13:00;101728.34;;;13.01;83.10
64095;BME280;50353;51.420;5.682;2023-05-02T01:15:27;101729.00;;;13.21;81.70
64095;BME280;50353;51.420;5.682;2023-05-02T01:17:54;101720.47;;;12.99;81.87
64095;BME280;50353;51.420;5.682;2023-05-02T01:20:22;101725.84;;;12.98;79.74
64095;BME280;50353;51.420;5.682;2023-05-02T01:22:50;101719.66;;;13.29;77.45
64095;BME280;50353;51.420;5.682;2023-05-02T01:25:32;101719.81;;;12.62;79.17
64095;BME280;50353;51.420;5.682;2023-05-02T01:28:17;101722.31;;;12.81;79.30
64095;BME280;50353;51.420;5.682;2023-05-02T01:30:46;101723.53;;;13.08;78.59
64095;BME280;50353;51.420;5.682;2023-05-02T01:33:15;101718.38;;;13.21;78.31
64095;BME280;50353;51.420;5.682;2023-05-02T01:35:42;101730.50;;;13.57;75.51
64095;BME280;50353;51.420;5.682;2023-05-02T01:38:08;101738.25;;;13.13;78.20
64095;BME280;50353;51.420;5.682;2023-05-02T01:40:38;101732.16;;;13.11;77.79
64095;BME280;50353;51.420;5.682;2023-05-02T01:43:04;101734.25;;;13.06;77.05
64095;BME280;50353;51.420;5.682;2023-05-02T01:45:33;101744.53;;;12.47;79.38
64095;BME280;50353;51.420;5.682;2023-05-02T01:48:00;101738.69;;;12.74;79.43
64095;BME280;50353;51.420;5.682;2023-05-02T01:50:26;101749.13;;;12.43;80.23
64095;BME280;50353;51.420;5.682;2023-05-02T01:52:52;101745.44;;;12.79;78.87
64095;BME280;50353;51.420;5.682;2023-05-02T01:55:18;101751.34;;;13.00;78.07
64095;BME280;50353;51.420;5.682;2023-05-02T01:57:46;101743.03;;;12.91;78.38
64095;BME280;50353;51.420;5.682;2023-05-02T02:00:12;101749.63;;;13.31;77.16
64095;BME280;50353;51.420;5.682;2023-05-02T02:02:41;101751.16;;;12.72;79.29
64095;BME280;50353;51.420;5.682;2023-05-02T02:05:08;101753.22;;;12.82;79.84
64095;BME280;50353;51.420;5.682;2023-05-02T02:07:35;101760.19;;;13.01;78.99
64095;BME280;50353;51.420;5.682;2023-05-02T02:10:00;101755.38;;;12.92;79.63
64095;BME280;50353;51.420;5.682;2023-05-02T02:12:27;101761.13;;;13.00;79.02
64095;BME280;50353;51.420;5.682;2023-05-02T02:14:59;101767.28;;;13.00;78.75
64095;BME280;50353;51.420;5.682;2023-05-02T02:17:39;101766.47;;;12.50;81.04
64095;BME280;50353;51.420;5.682;2023-05-02T02:20:08;101765.00;;;12.61;80.53
64095;BME280;50353;51.420;5.682;2023-05-02T02:22:37;101765.06;;;12.93;78.98
64095;BME280;50353;51.420;5.682;2023-05-02T02:25:05;101771.53;;;12.71;80.26
64095;BME280;50353;51.420;5.682;2023-05-02T02:27:32;101780.59;;;12.67;80.51
64095;BME280;50353;51.420;5.682;2023-05-02T02:29:57;101782.47;;;12.31;81.06
64095;BME280;50353;51.420;5.682;2023-05-02T02:32:23;101781.69;;;12.29;82.25
64095;BME280;50353;51.420;5.682;2023-05-02T02:34:49;101780.16;;;12.59;81.42
64095;BME280;50353;51.420;5.682;2023-05-02T02:37:17;101781.28;;;12.55;81.69
64095;BME280;50353;51.420;5.682;2023-05-02T02:42:54;101784.63;;;12.74;81.06
64095;BME280;50353;51.420;5.682;2023-05-02T02:45:37;101779.44;;;13.21;77.22
64095;BME280;50353;51.420;5.682;2023-05-02T02:48:36;101780.56;;;12.51;81.24
64095;BME280;50353;51.420;5.682;2023-05-02T02:51:21;101782.84;;;12.41;81.99
64095;BME280;50353;51.420;5.682;2023-05-02T02:54:12;101791.88;;;12.71;80.55
64095;BME280;50353;51.420;5.682;2023-05-02T02:56:40;101791.38;;;12.13;83.96
64095;BME280;50353;51.420;5.682;2023-05-02T02:59:23;101784.22;;;12.48;83.73
64095;BME280;50353;51.420;5.682;2023-05-02T03:02:19;101791.13;;;12.68;81.49
64095;BME280;50353;51.420;5.682;2023-05-02T03:04:50;101799.47;;;12.45;82.79
64095;BME280;50353;51.420;5.682;2023-05-02T03:07:16;101802.75;;;12.32;84.27
64095;BME280;50353;51.420;5.682;2023-05-02T03:09:43;101793.44;;;12.59;82.35
64095;BME280;50353;51.420;5.682;2023-05-02T03:12:09;101807.75;;;12.21;84.23
64095;BME280;50353;51.420;5.682;2023-05-02T03:14:35;101814.84;;;12.72;82.48
64095;BME280;50353;51.420;5.682;2023-05-02T03:17:01;101803.03;;;12.61;82.93
64095;BME280;50353;51.420;5.682;2023-05-02T03:19:26;101818.88;;;12.45;82.86
64095;BME280;50353;51.420;5.682;2023-05-02T03:21:52;101820.31;;;12.68;83.39
64095;BME280;50353;51.420;5.682;2023-05-02T03:24:17;101827.19;;;12.04;86.80
64095;BME280;50353;51.420;5.682;2023-05-02T03:26:42;101818.41;;;12.71;82.82
64095;BME280;50353;51.420;5.682;2023-05-02T03:29:07;101827.19;;;12.04;86.19
64095;BME280;50353;51.420;5.682;2023-05-02T03:31:33;101830.22;;;12.65;83.47
64095;BME280;50353;51.420;5.682;2023-05-02T03:33:58;101833.16;;;12.08;85.70
64095;BME280;50353;51.420;5.682;2023-05-02T03:36:23;101829.19;;;12.67;83.02
64095;BME280;50353;51.420;5.682;2023-05-02T03:38:49;101829.81;;;12.04;85.84
64095;BME280;50353;51.420;5.682;2023-05-02T03:41:14;101831.69;;;12.37;84.48
64095;BME280;50353;51.420;5.682;2023-05-02T03:43:40;101834.28;;;11.67;88.92
64095;BME280;50353;51.420;5.682;2023-05-02T03:46:07;101836.91;;;12.39;85.53
64095;BME280;50353;51.420;5.682;2023-05-02T03:48:33;101840.72;;;12.33;84.61
64095;BME280;50353;51.420;5.682;2023-05-02T03:50:59;101840.72;;;12.33;85.51
64095;BME280;50353;51.420;5.682;2023-05-02T03:53:24;101838.03;;;12.68;83.72
64095;BME280;50353;51.420;5.682;2023-05-02T03:55:50;101839.00;;;12.83;83.84
64095;BME280;50353;51.420;5.682;2023-05-02T03:58:16;101844.31;;;12.32;86.14
64095;BME280;50353;51.420;5.682;2023-05-02T04:00:41;101846.56;;;12.40;85.97
64095;BME280;50353;51.420;5.682;2023-05-02T04:03:06;101847.84;;;12.15;88.40
64095;BME280;50353;51.420;5.682;2023-05-02T04:05:32;101854.91;;;12.32;87.47
64095;BME280;50353;51.420;5.682;2023-05-02T04:07:57;101851.47;;;12.47;86.91
64095;BME280;50353;51.420;5.682;2023-05-02T04:10:23;101855.34;;;11.88;89.93
64095;BME280;50353;51.420;5.682;2023-05-02T04:12:48;101862.31;;;12.25;87.77
64095;BME280;50353;51.420;5.682;2023-05-02T04:15:14;101867.78;;;12.57;86.50
64095;BME280;50353;51.420;5.682;2023-05-02T04:17:39;101860.41;;;11.92;90.42
64095;BME280;50353;51.420;5.682;2023-05-02T04:20:05;101863.97;;;12.28;89.74
64095;BME280;50353;51.420;5.682;2023-05-02T04:22:31;101864.97;;;11.89;90.82
64095;BME280;50353;51.420;5.682;2023-05-02T04:24:57;101872.25;;;12.22;89.95
64095;BME280;50353;51.420;5.682;2023-05-02T04:27:22;101878.94;;;12.46;88.29
64095;BME280;50353;51.420;5.682;2023-05-02T04:29:48;101881.44;;;12.32;88.13
64095;BME280;50353;51.420;5.682;2023-05-02T04:32:14;101879.88;;;12.45;87.92
64095;BME280;50353;51.420;5.682;2023-05-02T04:34:40;101890.16;;;12.16;87.63
64095;BME280;50353;51.420;5.682;2023-05-02T04:37:05;101888.38;;;12.52;86.05
64095;BME280;50353;51.420;5.682;2023-05-02T04:39:31;101893.03;;;12.64;85.79
64095;BME280;50353;51.420;5.682;2023-05-02T04:41:57;101900.31;;;12.26;86.02
64095;BME280;50353;51.420;5.682;2023-05-02T04:44:22;101895.00;;;11.89;88.88
64095;BME280;50353;51.420;5.682;2023-05-02T04:46:47;101901.31;;;11.87;87.00
64095;BME280;50353;51.420;5.682;2023-05-02T04:49:13;101921.22;;;11.38;87.71
64095;BME280;50353;51.420;5.682;2023-05-02T04:51:38;101914.50;;;11.69;87.24
64095;BME280;50353;51.420;5.682;2023-05-02T04:54:03;101916.31;;;11.69;85.55
64095;BME280;50353;51.420;5.682;2023-05-02T04:56:29;101927.97;;;11.83;85.34
64095;BME280;50353;51.420;5.682;2023-05-02T04:58:54;101930.59;;;12.03;82.22
64095;BME280;50353;51.420;5.682;2023-05-02T05:01:19;101937.41;;;11.89;81.28
64095;BME280;50353;51.420;5.682;2023-05-02T05:03:45;101941.81;;;11.89;80.03
64095;BME280;50353;51.420;5.682;2023-05-02T05:06:10;101946.28;;;11.50;78.93
64095;BME280;50353;51.420;5.682;2023-05-02T05:08:36;101957.88;;;11.66;79.23
64095;BME280;50353;51.420;5.682;2023-05-02T05:11:02;101950.72;;;11.88;78.54
64095;BME280;50353;51.420;5.682;2023-05-02T05:13:29;101954.53;;;12.18;76.33
64095;BME280;50353;51.420;5.682;2023-05-02T05:15:54;101959.94;;;12.17;76.56
64095;BME280;50353;51.420;5.682;2023-05-02T05:18:20;101962.09;;;11.90;76.59
64095;BME280;50353;51.420;5.682;2023-05-02T05:20:45;101967.63;;;11.66;78.06
64095;BME280;50353;51.420;5.682;2023-05-02T05:23:11;101971.69;;;11.73;77.10
64095;BME280;50353;51.420;5.682;2023-05-02T05:25:36;101977.50;;;11.81;77.33
64095;BME280;50353;51.420;5.682;2023-05-02T05:28:02;101981.44;;;11.92;77.49
64095;BME280;50353;51.420;5.682;2023-05-02T05:30:27;101982.03;;;11.79;77.65
64095;BME280;50353;51.420;5.682;2023-05-02T05:32:55;101986.06;;;11.48;78.13
64095;BME280;50353;51.420;5.682;2023-05-02T05:35:20;101989.31;;;11.74;77.16
64095;BME280;50353;51.420;5.682;2023-05-02T05:37:46;102003.78;;;11.27;77.67
64095;BME280;50353;51.420;5.682;2023-05-02T05:40:11;101998.94;;;11.37;77.90
64095;BME280;50353;51.420;5.682;2023-05-02T05:42:36;102006.22;;;11.32;77.27
64095;BME280;50353;51.420;5.682;2023-05-02T05:45:02;102006.50;;;11.26;77.97
64095;BME280;50353;51.420;5.682;2023-05-02T05:47:27;102010.00;;;11.66;76.51
64095;BME280;50353;51.420;5.682;2023-05-02T05:49:53;102017.56;;;11.55;76.36
64095;BME280;50353;51.420;5.682;2023-05-02T05:52:18;102014.75;;;11.97;74.36
64095;BME280;50353;51.420;5.682;2023-05-02T05:54:44;102003.91;;;12.21;72.79
64095;BME280;50353;51.420;5.682;2023-05-02T05:57:09;102013.03;;;11.96;73.02
64095;BME280;50353;51.420;5.682;2023-05-02T05:59:34;102020.72;;;12.39;72.03
64095;BME280;50353;51.420;5.682;2023-05-02T06:02:00;102021.28;;;12.09;71.79
64095;BME280;50353;51.420;5.682;2023-05-02T06:04:26;102029.59;;;12.02;73.25
64095;BME280;50353;51.420;5.682;2023-05-02T06:06:51;102027.47;;;11.89;72.66
64095;BME280;50353;51.420;5.682;2023-05-02T06:09:17;102027.78;;;12.58;71.47
64095;BME280;50353;51.420;5.682;2023-05-02T06:11:43;102028.72;;;12.92;69.24
64095;BME280;50353;51.420;5.682;2023-05-02T06:14:08;102035.41;;;12.46;70.73
64095;BME280;50353;51.420;5.682;2023-05-02T06:16:33;102047.03;;;12.25;71.18
64095;BME280;50353;51.420;5.682;2023-05-02T06:18:59;102047.22;;;12.39;70.35
64095;BME280;50353;51.420;5.682;2023-05-02T06:21:24;102050.69;;;12.41;69.83
64095;BME280;50353;51.420;5.682;2023-05-02T06:23:50;102049.22;;;12.16;71.81
64095;BME280;50353;51.420;5.682;2023-05-02T06:26:15;102048.13;;;12.57;70.16
64095;BME280;50353;51.420;5.682;2023-05-02T06:28:40;102049.25;;;12.34;71.15
64095;BME280;50353;51.420;5.682;2023-05-02T06:31:06;102063.72;;;12.08;73.29
64095;BME280;50353;51.420;5.682;2023-05-02T06:33:32;102056.91;;;12.77;71.57
64095;BME280;50353;51.420;5.682;2023-05-02T06:35:58;102067.91;;;12.87;69.41
64095;BME280;50353;51.420;5.682;2023-05-02T06:38:23;102068.00;;;13.20;68.21
64095;BME280;50353;51.420;5.682;2023-05-02T06:40:49;102068.28;;;13.82;66.63
64095;BME280;50353;51.420;5.682;2023-05-02T06:43:15;102074.72;;;13.94;64.61
64095;BME280;50353;51.420;5.682;2023-05-02T06:45:40;102072.78;;;14.30;64.72
64095;BME280;50353;51.420;5.682;2023-05-02T06:48:06;102086.16;;;13.63;65.57
64095;BME280;50353;51.420;5.682;2023-05-02T06:50:32;102083.53;;;13.45;65.72
64095;BME280;50353;51.420;5.682;2023-05-02T06:52:58;102087.84;;;13.81;65.58
64095;BME280;50353;51.420;5.682;2023-05-02T06:55:23;102092.25;;;13.65;65.08
64095;BME280;50353;51.420;5.682;2023-05-02T06:57:49;102097.97;;;13.91;63.58
64095;BME280;50353;51.420;5.682;2023-05-02T07:00:18;102102.25;;;13.93;64.32
64095;BME280;50353;51.420;5.682;2023-05-02T07:02:45;102100.56;;;13.92;64.60
64095;BME280;50353;51.420;5.682;2023-05-02T07:05:11;102102.97;;;14.29;64.50
64095;BME280;50353;51.420;5.682;2023-05-02T07:07:36;102107.75;;;13.90;64.46
64095;BME280;50353;51.420;5.682;2023-05-02T07:10:02;102105.84;;;13.59;64.64
64095;BME280;50353;51.420;5.682;2023-05-02T07:12:28;102108.97;;;13.67;63.97
64095;BME280;50353;51.420;5.682;2023-05-02T07:14:53;102114.19;;;14.02;64.17
64095;BME280;50353;51.420;5.682;2023-05-02T07:17:18;102126.81;;;14.14;64.53
64095;BME280;50353;51.420;5.682;2023-05-02T07:19:44;102124.38;;;13.94;65.09
64095;BME280;50353;51.420;5.682;2023-05-02T07:22:09;102129.47;;;13.65;65.23
64095;BME280;50353;51.420;5.682;2023-05-02T07:24:34;102142.13;;;13.60;65.84
64095;BME280;50353;51.420;5.682;2023-05-02T07:27:00;102152.78;;;12.69;68.70
64095;BME280;50353;51.420;5.682;2023-05-02T07:29:27;102154.78;;;12.83;69.76
64095;BME280;50353;51.420;5.682;2023-05-02T07:31:52;102151.66;;;12.92;68.67
64095;BME280;50353;51.420;5.682;2023-05-02T07:34:17;102148.78;;;12.97;69.46
64095;BME280;50353;51.420;5.682;2023-05-02T07:36:43;102162.75;;;12.83;69.02
64095;BME280;50353;51.420;5.682;2023-05-02T07:39:08;102159.28;;;12.81;69.29
64095;BME280;50353;51.420;5.682;2023-05-02T07:41:34;102154.84;;;12.62;69.36
64095;BME280;50353;51.420;5.682;2023-05-02T07:43:59;102157.88;;;12.74;70.46
64095;BME280;50353;51.420;5.682;2023-05-02T07:46:25;102160.69;;;12.88;69.73
64095;BME280;50353;51.420;5.682;2023-05-02T07:48:50;102157.53;;;13.35;67.31
64095;BME280;50353;51.420;5.682;2023-05-02T07:51:17;102166.94;;;13.06;67.98
64095;BME280;50353;51.420;5.682;2023-05-02T07:53:45;102163.66;;;13.18;65.82
64095;BME280;50353;51.420;5.682;2023-05-02T07:56:11;102162.47;;;13.07;66.44
64095;BME280;50353;51.420;5.682;2023-05-02T07:58:36;102169.91;;;13.35;65.92
64095;BME280;50353;51.420;5.682;2023-05-02T08:01:02;102172.75;;;13.49;64.30
64095;BME280;50353;51.420;5.682;2023-05-02T08:03:28;102173.16;;;13.05;65.65
64095;BME280;50353;51.420;5.682;2023-05-02T08:05:54;102174.47;;;13.50;63.78
64095;BME280;50353;51.420;5.682;2023-05-02T08:08:19;102175.88;;;13.40;64.17
64095;BME280;50353;51.420;5.682;2023-05-02T08:10:44;102179.25;;;13.07;64.43
64095;BME280;50353;51.420;5.682;2023-05-02T08:13:10;102193.69;;;13.01;63.74
64095;BME280;50353;51.420;5.682;2023-05-02T08:15:36;102189.31;;;12.81;64.37
64095;BME280;50353;51.420;5.682;2023-05-02T08:18:01;102188.72;;;12.76;64.09
64095;BME280;50353;51.420;5.682;2023-05-02T08:20:26;102192.94;;;13.34;62.85
64095;BME280;50353;51.420;5.682;2023-05-02T08:22:52;102190.66;;;13.46;62.51
64095;BME280;50353;51.420;5.682;2023-05-02T08:25:17;102197.41;;;13.34;61.73
64095;BME280;50353;51.420;5.682;2023-05-02T08:27:42;102195.50;;;13.38;61.98
64095;BME280;50353;51.420;5.682;2023-05-02T08:30:08;102203.94;;;13.09;62.03
64095;BME280;50353;51.420;5.682;2023-05-02T08:32:34;102201.44;;;13.24;60.72
64095;BME280;50353;51.420;5.682;2023-05-02T08:34:59;102208.53;;;13.06;62.90
64095;BME280;50353;51.420;5.682;2023-05-02T08:37:25;102216.88;;;12.98;62.67
64095;BME280;50353;51.420;5.682;2023-05-02T08:39:50;102210.22;;;13.26;61.84
64095;BME280;50353;51.420;5.682;2023-05-02T08:42:16;102214.63;;;13.62;62.54
64095;BME280;50353;51.420;5.682;2023-05-02T08:44:41;102218.94;;;13.10;62.38
64095;BME280;50353;51.420;5.682;2023-05-02T08:47:09;102218.94;;;13.10;63.01
64095;BME280;50353;51.420;5.682;2023-05-02T08:49:35;102228.91;;;13.05;62.97
64095;BME280;50353;51.420;5.682;2023-05-02T08:52:01;102226.34;;;13.58;61.19
64095;BME280;50353;51.420;5.682;2023-05-02T08:54:27;102229.50;;;13.48;58.53
64095;BME280;50353;51.420;5.682;2023-05-02T08:56:53;102235.38;;;13.36;60.63
64095;BME280;50353;51.420;5.682;2023-05-02T08:59:19;102241.44;;;13.21;60.45
64095;BME280;50353;51.420;5.682;2023-05-02T09:01:48;102236.03;;;13.22;60.98
64095;BME280;50353;51.420;5.682;2023-05-02T09:04:13;102236.19;;;13.38;60.91
64095;BME280;50353;51.420;5.682;2023-05-02T09:06:39;102247.19;;;13.11;60.47
64095;BME280;50353;51.420;5.682;2023-05-02T09:09:04;102245.13;;;12.99;59.34
64095;BME280;50353;51.420;5.682;2023-05-02T09:11:30;102243.38;;;13.53;58.84
64095;BME280;50353;51.420;5.682;2023-05-02T09:13:55;102253.13;;;13.35;59.24
64095;BME280;50353;51.420;5.682;2023-05-02T09:16:24;102249.72;;;13.68;57.75
64095;BME280;50353;51.420;5.682;2023-05-02T09:18:52;102258.56;;;13.51;57.07
64095;BME280;50353;51.420;5.682;2023-05-02T09:21:22;102265.03;;;13.46;58.08
64095;BME280;50353;51.420;5.682;2023-05-02T09:23:54;102265.81;;;13.48;57.96
64095;BME280;50353;51.420;5.682;2023-05-02T09:28:47;102262.31;;;13.65;57.21
64095;BME280;50353;51.420;5.682;2023-05-02T09:31:17;102269.34;;;14.01;56.26
64095;BME280;50353;51.420;5.682;2023-05-02T09:33:43;102274.03;;;13.96;56.84
64095;BME280;50353;51.420;5.682;2023-05-02T09:36:16;102283.38;;;14.20;54.52
64095;BME280;50353;51.420;5.682;2023-05-02T09:38:44;102280.41;;;14.27;53.10
64095;BME280;50353;51.420;5.682;2023-05-02T09:41:10;102287.00;;;13.84;53.54
64095;BME280;50353;51.420;5.682;2023-05-02T09:43:36;102277.72;;;14.44;54.41
64095;BME280;50353;51.420;5.682;2023-05-02T09:46:03;102291.38;;;14.54;52.19
64095;BME280;50353;51.420;5.682;2023-05-02T09:48:29;102290.75;;;14.33;52.09
64095;BME280;50353;51.420;5.682;2023-05-02T09:50:55;102297.44;;;14.40;51.03
64095;BME280;50353;51.420;5.682;2023-05-02T09:53:22;102293.72;;;14.09;51.97
64095;BME280;50353;51.420;5.682;2023-05-02T09:55:58;102291.63;;;13.81;52.80
64095;BME280;50353;51.420;5.682;2023-05-02T09:58:24;102286.56;;;13.94;54.12
64095;BME280;50353;51.420;5.682;2023-05-02T10:00:50;102292.50;;;14.99;49.18
64095;BME280;50353;51.420;5.682;2023-05-02T10:03:18;102295.69;;;15.06;49.61
64095;BME280;50353;51.420;5.682;2023-05-02T10:05:45;102298.63;;;15.17;49.77
64095;BME280;50353;51.420;5.682;2023-05-02T10:08:11;102299.63;;;14.49;48.37
64095;BME280;50353;51.420;5.682;2023-05-02T10:10:46;102296.34;;;14.44;50.12
64095;BME280;50353;51.420;5.682;2023-05-02T10:13:12;102308.78;;;14.44;50.64
64095;BME280;50353;51.420;5.682;2023-05-02T10:15:42;102313.13;;;14.96;50.03
64095;BME280;50353;51.420;5.682;2023-05-02T10:18:11;102305.22;;;15.42;49.16
64095;BME280;50353;51.420;5.682;2023-05-02T10:20:43;102307.34;;;15.03;49.32
64095;BME280;50353;51.420;5.682;2023-05-02T10:23:09;102301.50;;;14.97;51.57
64095;BME280;50353;51.420;5.682;2023-05-02T10:25:34;102310.72;;;14.75;51.83
64095;BME280;50353;51.420;5.682;2023-05-02T10:28:01;102311.13;;;14.99;50.77
64095;BME280;50353;51.420;5.682;2023-05-02T10:30:26;102317.00;;;15.22;51.73
64095;BME280;50353;51.420;5.682;2023-05-02T10:32:52;102315.06;;;14.59;50.06
64095;BME280;50353;51.420;5.682;2023-05-02T10:35:18;102320.94;;;13.97;51.23
64095;BME280;50353;51.420;5.682;2023-05-02T10:37:45;102317.28;;;14.17;52.47
64095;BME280;50353;51.420;5.682;2023-05-02T10:40:12;102319.03;;;14.34;50.05
64095;BME280;50353;51.420;5.682;2023-05-02T10:42:39;102316.47;;;14.99;51.78
64095;BME280;50353;51.420;5.682;2023-05-02T10:45:11;102323.78;;;15.28;49.31
64095;BME280;50353;51.420;5.682;2023-05-02T10:47:36;102317.16;;;15.35;50.56
64095;BME280;50353;51.420;5.682;2023-05-02T10:50:02;102326.81;;;15.21;48.84
64095;BME280;50353;51.420;5.682;2023-05-02T10:52:34;102321.47;;;15.21;48.50
64095;BME280;50353;51.420;5.682;2023-05-02T10:55:19;102315.47;;;14.00;51.25
64095;BME280;50353;51.420;5.682;2023-05-02T11:00:27;102312.19;;;15.13;48.27
64095;BME280;50353;51.420;5.682;2023-05-02T11:02:54;102313.06;;;14.46;49.07
64095;BME280;50353;51.420;5.682;2023-05-02T11:05:21;102303.66;;;14.06;49.56
64095;BME280;50353;51.420;5.682;2023-05-02T11:07:46;102313.31;;;14.42;49.83
64095;BME280;50353;51.420;5.682;2023-05-02T11:12:47;102322.81;;;14.97;47.23
64095;BME280;50353;51.420;5.682;2023-05-02T11:18:04;102329.66;;;15.65;45.39
64095;BME280;50353;51.420;5.682;2023-05-02T11:20:40;102319.25;;;15.76;45.41
64095;BME280;50353;51.420;5.682;2023-05-02T11:25:56;102329.09;;;15.44;46.59
64095;BME280;50353;51.420;5.682;2023-05-02T11:33:59;102330.44;;;17.56;41.08
64095;BME280;50353;51.420;5.682;2023-05-02T11:36:34;102327.06;;;18.07;42.49
64095;BME280;50353;51.420;5.682;2023-05-02T11:39:00;102326.66;;;18.52;40.61
64095;BME280;50353;51.420;5.682;2023-05-02T11:41:39;102322.56;;;18.07;39.36
64095;BME280;50353;51.420;5.682;2023-05-02T11:44:04;102319.78;;;18.73;42.54
64095;BME280;50353;51.420;5.682;2023-05-02T11:46:30;102319.69;;;18.49;40.96
64095;BME280;50353;51.420;5.682;2023-05-02T11:48:55;102323.84;;;17.62;41.88
64095;BME280;50353;51.420;5.682;2023-05-02T11:51:22;102321.25;;;17.87;42.40
64095;BME280;50353;51.420;5.682;2023-05-02T11:53:47;102333.75;;;17.32;42.76
64095;BME280;50353;51.420;5.682;2023-05-02T11:56:13;102334.09;;;17.13;41.62
64095;BME280;50353;51.420;5.682;2023-05-02T11:58:39;102328.75;;;17.13;43.25
64095;BME280;50353;51.420;5.682;2023-05-02T12:01:11;102330.81;;;17.37;41.94
64095;BME280;50353;51.420;5.682;2023-05-02T12:03:37;102329.19;;;18.02;40.76
64095;BME280;50353;51.420;5.682;2023-05-02T12:06:10;102337.38;;;17.31;42.20
64095;BME280;50353;51.420;5.682;2023-05-02T12:08:35;102337.34;;;17.04;39.81
64095;BME280;50353;51.420;5.682;2023-05-02T12:11:01;102338.19;;;16.47;41.43
64095;BME280;50353;51.420;5.682;2023-05-02T12:13:28;102337.34;;;16.46;43.41
64095;BME280;50353;51.420;5.682;2023-05-02T12:15:54;102348.72;;;17.08;43.00
64095;BME280;50353;51.420;5.682;2023-05-02T12:18:22;102347.03;;;17.61;43.92
64095;BME280;50353;51.420;5.682;2023-05-02T12:20:49;102345.50;;;17.84;42.40
64095;BME280;50353;51.420;5.682;2023-05-02T12:23:16;102348.19;;;18.76;40.63
64095;BME280;50353;51.420;5.682;2023-05-02T12:25:41;102350.22;;;18.21;41.65
64095;BME280;50353;51.420;5.682;2023-05-02T12:28:08;102356.25;;;18.50;43.61
64095;BME280;50353;51.420;5.682;2023-05-02T12:30:34;102363.78;;;16.94;43.63
64095;BME280;50353;51.420;5.682;2023-05-02T12:33:02;102364.50;;;15.78;50.56
64095;BME280;50353;51.420;5.682;2023-05-02T12:35:28;102363.47;;;15.32;47.26
64095;BME280;50353;51.420;5.682;2023-05-02T12:37:54;102365.00;;;15.68;45.60
64095;BME280;50353;51.420;5.682;2023-05-02T12:40:31;102353.59;;;17.43;42.25
64095;BME280;50353;51.420;5.682;2023-05-02T12:43:00;102372.69;;;17.36;40.18
64095;BME280;50353;51.420;5.682;2023-05-02T12:45:28;102365.97;;;17.58;41.41
64095;BME280;50353;51.420;5.682;2023-05-02T12:47:58;102370.97;;;16.94;42.11
64095;BME280;50353;51.420;5.682;2023-05-02T12:50:34;102371.75;;;17.65;43.11
64095;BME280;50353;51.420;5.682;2023-05-02T12:53:00;102384.06;;;17.40;40.79
64095;BME280;50353;51.420;5.682;2023-05-02T12:55:27;102380.34;;;17.97;40.62
64095;BME280;50353;51.420;5.682;2023-05-02T12:58:22;102376.16;;;18.46;40.00
64095;BME280;50353;51.420;5.682;2023-05-02T13:00:50;102390.44;;;18.06;40.86
64095;BME280;50353;51.420;5.682;2023-05-02T13:03:16;102386.34;;;18.67;38.85
64095;BME280;50353;51.420;5.682;2023-05-02T13:05:41;102384.00;;;17.96;39.25
64095;BME280;50353;51.420;5.682;2023-05-02T13:08:06;102390.25;;;18.22;39.67
64095;BME280;50353;51.420;5.682;2023-05-02T13:10:32;102389.97;;;17.45;40.90
64095;BME280;50353;51.420;5.682;2023-05-02T13:12:57;102379.34;;;18.38;39.89
64095;BME280;50353;51.420;5.682;2023-05-02T13:15:22;102384.09;;;18.99;40.48
64095;BME280;50353;51.420;5.682;2023-05-02T13:17:49;102372.91;;;18.80;39.59